地図

経路データ

SID SEASON NUMBER BASIN SUBBASIN NAME ISO_TIME NATURE LAT LON WMO_WIND WMO_PRES WMO_AGENCY TRACK_TYPE DIST2LAND LANDFALL IFLAG USA_AGENCY USA_ATCF_ID USA_LAT USA_LON USA_RECORD USA_STATUS USA_WIND USA_PRES USA_SSHS USA_R34_NE USA_R34_SE USA_R34_SW USA_R34_NW USA_R50_NE USA_R50_SE USA_R50_SW USA_R50_NW USA_R64_NE USA_R64_SE USA_R64_SW USA_R64_NW USA_POCI USA_ROCI USA_RMW USA_EYE TOKYO_LAT TOKYO_LON TOKYO_GRADE TOKYO_WIND TOKYO_PRES TOKYO_R50_DIR TOKYO_R50_LONG TOKYO_R50_SHORT TOKYO_R30_DIR TOKYO_R30_LONG TOKYO_R30_SHORT TOKYO_LAND CMA_LAT CMA_LON CMA_CAT CMA_WIND CMA_PRES HKO_LAT HKO_LON HKO_CAT HKO_WIND HKO_PRES NEWDELHI_LAT NEWDELHI_LON NEWDELHI_GRADE NEWDELHI_WIND NEWDELHI_PRES NEWDELHI_CI NEWDELHI_DP NEWDELHI_POCI REUNION_LAT REUNION_LON REUNION_TYPE REUNION_WIND REUNION_PRES REUNION_TNUM REUNION_CI REUNION_RMW REUNION_R34_NE REUNION_R34_SE REUNION_R34_SW REUNION_R34_NW REUNION_R50_NE REUNION_R50_SE REUNION_R50_SW REUNION_R50_NW REUNION_R64_NE REUNION_R64_SE REUNION_R64_SW REUNION_R64_NW BOM_LAT BOM_LON BOM_TYPE BOM_WIND BOM_PRES BOM_TNUM BOM_CI BOM_RMW BOM_R34_NE BOM_R34_SE BOM_R34_SW BOM_R34_NW BOM_R50_NE BOM_R50_SE BOM_R50_SW BOM_R50_NW BOM_R64_NE BOM_R64_SE BOM_R64_SW BOM_R64_NW BOM_ROCI BOM_POCI BOM_EYE BOM_POS_METHOD BOM_PRES_METHOD NADI_LAT NADI_LON NADI_CAT NADI_WIND NADI_PRES WELLINGTON_LAT WELLINGTON_LON WELLINGTON_WIND WELLINGTON_PRES DS824_LAT DS824_LON DS824_STAGE DS824_WIND DS824_PRES TD9636_LAT TD9636_LON TD9636_STAGE TD9636_WIND TD9636_PRES TD9635_LAT TD9635_LON TD9635_WIND TD9635_PRES TD9635_ROCI NEUMANN_LAT NEUMANN_LON NEUMANN_CLASS NEUMANN_WIND NEUMANN_PRES MLC_LAT MLC_LON MLC_CLASS MLC_WIND MLC_PRES USA_GUST BOM_GUST BOM_GUST_PER REUNION_GUST REUNION_GUST_PER USA_SEAHGT USA_SEARAD_NE USA_SEARAD_SE USA_SEARAD_SW USA_SEARAD_NW STORM_SPEED STORM_DIR
1959197N12242 1959 48 EP MM NOT_NAMED 1959-07-16 00:00:00 TS 12.2000 -118.400 45 hurdat_epa main 1491 1491 O________OO___ hurdat_epa EP031959 12.2000 -118.400 TS 45 0 12.2000 -118.400 TC 45 12.2000 -118.400 2 9 268
1959197N12242 1959 48 EP MM NOT_NAMED 1959-07-16 03:00:00 TS 12.1848 -118.851 main 1523 1523 P________PP___ EP031959 12.1726 -118.840 TS 45 0 12.1726 -118.840 TC 45 12.2337 -118.895 2 9 271
1959197N12242 1959 48 EP MM NOT_NAMED 1959-07-16 06:00:00 TS 12.2167 -119.315 45 hurdat_epa main 1549 1549 O________OP___ hurdat_epa EP031959 12.2000 -119.300 TS 45 0 12.2000 -119.300 TC 45 12.2835 -119.373 2 9 279
1959197N12242 1959 48 EP MM NOT_NAMED 1959-07-16 09:00:00 TS 12.3294 -119.787 main 1575 1573 P________PP___ EP031959 12.3201 -119.780 TS 45 0 12.3201 -119.780 TC 45 12.3665 -119.814 2 9 288
1959197N12242 1959 48 EP MM NOT_NAMED 1959-07-16 12:00:00 TS 12.5000 -120.200 45 hurdat_epa main 1586 1584 O________OO___ hurdat_epa EP031959 12.5000 -120.200 TS 45 0 12.5000 -120.200 TC 45 12.5000 -120.200 2 8 298
1959197N12242 1959 48 EP MM NOT_NAMED 1959-07-16 15:00:00 TS 12.6866 -120.482 main 1591 1590 P________PP___ EP031959 12.6848 -120.473 TS 45 0 12.6848 -120.473 TC 45 12.6936 -120.521 2 7 309
1959197N12242 1959 48 EP MM NOT_NAMED 1959-07-16 18:00:00 TS 12.9054 -120.719 45 hurdat_epa main 1590 1589 O________OP___ hurdat_epa EP031959 12.9000 -120.700 TS 45 0 12.9000 -120.700 TC 45 12.9269 -120.795 2 7 313
1959197N12242 1959 48 EP MM NOT_NAMED 1959-07-16 21:00:00 TS 13.1604 -121.003 main 1589 1583 P________PP___ EP031959 13.1575 -120.992 TS 45 0 13.1575 -120.992 TC 45 13.1718 -121.046 2 8 311
1959197N12242 1959 48 EP MM NOT_NAMED 1959-07-17 00:00:00 TS 13.4000 -121.300 45 hurdat_epa main 1590 1587 O________OO___ hurdat_epa EP031959 13.4000 -121.300 TS 45 0 13.4000 -121.300 TC 45 13.4000 -121.300 2 7 305
1959197N12242 1959 48 EP MM NOT_NAMED 1959-07-17 03:00:00 TS 13.5614 -121.600 main 1591 1591 P________PP___ EP031959 13.5650 -121.600 TS 45 0 13.5650 -121.600 TC 45 13.5472 -121.597 2 7 297
1959197N12242 1959 48 EP MM NOT_NAMED 1959-07-17 06:00:00 TS 13.6955 -121.900 45 hurdat_epa main 1602 1600 O________OP___ hurdat_epa EP031959 13.7000 -121.900 TS 45 0 13.7000 -121.900 TC 45 13.6775 -121.901 2 6 294
1959197N12242 1959 48 EP MM NOT_NAMED 1959-07-17 09:00:00 TS 13.8258 -122.201 main 1614 1610 P________PP___ EP031959 13.8275 -122.200 TS 45 0 13.8275 -122.200 TC 45 13.8190 -122.204 2 7 298
1959197N12242 1959 48 EP MM NOT_NAMED 1959-07-17 12:00:00 TS 14.0000 -122.500 45 hurdat_epa main 1617 1615 O________OO___ hurdat_epa EP031959 14.0000 -122.500 TS 45 0 14.0000 -122.500 TC 45 14.0000 -122.500 2 7 307
1959197N12242 1959 48 EP MM NOT_NAMED 1959-07-17 15:00:00 TS 14.2601 -122.784 main 1614 1604 P________PP___ EP031959 14.2775 -122.807 TS 45 0 14.2775 -122.807 TC 45 14.1906 -122.691 2 8 316
1959197N12242 1959 48 EP MM NOT_NAMED 1959-07-17 18:00:00 TS 14.5666 -123.058 45 hurdat_epa main 1611 1603 O________OP___ hurdat_epa EP031959 14.6000 -123.100 TS 45 0 14.6000 -123.100 TC 45 14.4329 -122.889 2 7 321
1959197N12242 1959 48 EP MM NOT_NAMED 1959-07-17 21:00:00 TS 14.8174 -123.254 main 1610 1601 P________PP___ EP031959 14.8320 -123.276 TS 45 0 14.8320 -123.276 TC 45 14.7588 -123.168 2 8 320
1959197N12242 1959 48 EP MM NOT_NAMED 1959-07-18 00:00:00 TS 15.2000 -123.600 45 hurdat_epa main 1601 1594 O________OO___ hurdat_epa EP031959 15.2000 -123.600 TS 45 0 15.2000 -123.600 TC 45 15.2000 -123.600 2 15 317
1959197N12242 1959 48 EP MM NOT_NAMED 1959-07-18 03:00:00 TS 15.8844 -124.299 main 1605 1605 P________PP___ EP031959 15.8978 -124.302 TS 45 0 15.8978 -124.302 TC 45 15.8311 -124.285 2 21 314
1959197N12242 1959 48 EP MM NOT_NAMED 1959-07-18 06:00:00 TS 16.6729 -125.186 45 hurdat_epa main 1615 1609 O________OP___ hurdat_epa EP031959 16.7000 -125.200 TS 45 0 16.7000 -125.200 TC 45 16.5646 -125.130 2 23 311
1959197N12242 1959 48 EP MM NOT_NAMED 1959-07-18 09:00:00 TS 17.3731 -126.092 main 1618 1616 P________PP___ EP031959 17.3875 -126.100 TS 45 0 17.3875 -126.100 TC 45 17.3155 -126.061 2 22 307
1959197N12242 1959 48 EP MM NOT_NAMED 1959-07-18 12:00:00 TS 18.0000 -127.000 45 hurdat_epa main 1637 1637 O________OO___ hurdat_epa EP031959 18.0000 -127.000 TS 45 0 18.0000 -127.000 TC 45 18.0000 -127.000 2 20 305
1959197N12242 1959 48 EP MM NOT_NAMED 1959-07-18 15:00:00 TS 18.5477 -127.827 main 1662 1662 P________PP___ EP031959 18.5443 -127.808 TS 45 0 18.5443 -127.808 TC 45 18.5613 -127.901 2 19 303
1959197N12242 1959 48 EP MM NOT_NAMED 1959-07-18 18:00:00 TS 19.0077 -128.637 45 hurdat_epa main 1692 1692 O________OP___ hurdat_epa EP031959 19.0000 -128.600 TS 45 0 19.0000 -128.600 TC 45 19.0383 -128.784 2 18 298
1959197N12242 1959 48 EP MM NOT_NAMED 1959-07-18 21:00:00 TS 19.4126 -129.528 main 1742 1742 P________PP___ EP031959 19.4105 -129.510 TS 45 0 19.4105 -129.510 TC 45 19.4210 -129.601 2 17 294
1959197N12242 1959 48 EP MM NOT_NAMED 1959-07-19 00:00:00 TS 19.7000 -130.300 45 hurdat_epa main 1793 1793 O________OO___ hurdat_epa EP031959 19.7000 -130.300 TS 45 0 19.7000 -130.300 TC 45 19.7000 -130.300 2 13 290
1959197N12242 1959 48 EP MM NOT_NAMED 1959-07-19 03:00:00 TS 19.8517 -130.776 main 1825 1825 P________PP___ EP031959 19.8443 -130.768 TS 45 0 19.8443 -130.768 TC 45 19.8812 -130.808 2 8 285
1959197N12242 1959 48 EP MM NOT_NAMED 1959-07-19 06:00:00 TS 19.9134 -131.120 45 hurdat_epa main 1852 1852 O________OP___ hurdat_epa EP031959 19.9000 -131.100 TS 45 0 19.9000 -131.100 TC 45 19.9668 -131.200 2 7 280
1959197N12242 1959 48 EP MM NOT_NAMED 1959-07-19 09:00:00 TS 19.9707 -131.496 main 1882 1882 P________PP___ EP031959 19.9648 -131.485 TS 45 0 19.9648 -131.485 TC 45 19.9942 -131.542 2 7 277
1959197N12242 1959 48 EP MM NOT_NAMED 1959-07-19 12:00:00 TS 20.0000 -131.900 45 hurdat_epa main 1918 1918 O________OO___ hurdat_epa EP031959 20.0000 -131.900 TS 45 0 20.0000 -131.900 TC 45 20.0000 -131.900 2 8 273
1959197N12242 1959 48 EP MM NOT_NAMED 1959-07-19 15:00:00 TS 20.0079 -132.384 main 1963 1963 P________PP___ EP031959 20.0000 -132.385 TS 45 0 20.0000 -132.385 TC 45 20.0395 -132.380 2 9 271
1959197N12242 1959 48 EP MM NOT_NAMED 1959-07-19 18:00:00 TS 20.0130 -132.897 45 hurdat_epa main 2009 2009 O________OP___ hurdat_epa EP031959 20.0000 -132.900 TS 45 0 20.0000 -132.900 TC 45 20.0652 -132.885 2 10 273
1959197N12242 1959 48 EP MM NOT_NAMED 1959-07-19 21:00:00 TS 20.0506 -133.406 main 2038 2038 P________PP___ EP031959 20.0424 -133.407 TS 45 0 20.0424 -133.407 TC 45 20.0832 -133.398 2 9 275
1959197N12242 1959 48 EP MM NOT_NAMED 1959-07-20 00:00:00 TS 20.1000 -133.900 45 hurdat_epa main 2069 2069 O________OO___ hurdat_epa EP031959 20.1000 -133.900 TS 45 0 20.1000 -133.900 TC 45 20.1000 -133.900 2 9 276
1959197N12242 1959 48 EP MM NOT_NAMED 1959-07-20 03:00:00 TS 20.1507 -134.358 main 2092 2091 P________PP___ EP031959 20.1573 -134.357 TS 45 0 20.1573 -134.357 TC 45 20.1244 -134.360 2 9 276
1959197N12242 1959 48 EP MM NOT_NAMED 1959-07-20 06:00:00 TS 20.1898 -134.802 45 hurdat_epa main 2091 2050 O________OP___ hurdat_epa EP031959 20.2000 -134.800 TS 45 0 20.2000 -134.800 TC 45 20.1492 -134.808 2 8 273
1959197N12242 1959 48 EP MM NOT_NAMED 1959-07-20 09:00:00 TS 20.2007 -135.244 main 2050 1997 P________PP___ EP031959 20.2073 -135.243 TS 45 0 20.2073 -135.243 TC 45 20.1744 -135.251 2 8 271
1959197N12242 1959 48 EP MM NOT_NAMED 1959-07-20 12:00:00 TS 20.2000 -135.700 45 hurdat_epa main 1997 1945 O________OO___ hurdat_epa EP031959 20.2000 -135.700 TS 45 0 20.2000 -135.700 TC 45 20.2000 -135.700 2 9 270
1959197N12242 1959 48 EP MM NOT_NAMED 1959-07-20 15:00:00 TS 20.1982 -136.197 main 1945 1893 P________PP___ EP031959 20.1925 -136.200 TS 45 0 20.1925 -136.200 TC 45 20.2209 -136.184 2 9 271
1959197N12242 1959 48 EP MM NOT_NAMED 1959-07-20 18:00:00 TS 20.2085 -136.695 45 hurdat_epa main 1893 1851 O________OP___ hurdat_epa EP031959 20.2000 -136.700 TS 45 0 20.2000 -136.700 TC 45 20.2426 -136.673 2 9 273
1959197N12242 1959 48 EP MM NOT_NAMED 1959-07-20 21:00:00 TS 20.2475 -137.162 main 1841 1799 P________PP___ EP031959 20.2424 -137.165 TS 45 0 20.2424 -137.165 TC 45 20.2679 -137.150 2 9 276
1959197N12242 1959 48 EP MM NOT_NAMED 1959-07-21 00:00:00 TS 20.3000 -137.600 45 hurdat_epa main 1799 1757 O________OO___ hurdat_epa EP031959 20.3000 -137.600 TS 45 0 20.3000 -137.600 TC 45 20.3000 -137.600 2 8 277
1959197N12242 1959 48 EP MM NOT_NAMED 1959-07-21 03:00:00 TS 20.3492 -138.012 main 1757 1716 P________PP___ EP031959 20.3499 -138.015 TS 45 0 20.3499 -138.015 TC 45 20.3462 -138.000 2 8 278
1959197N12242 1959 48 EP MM NOT_NAMED 1959-07-21 06:00:00 TS 20.3998 -138.394 45 hurdat_epa main 1716 1685 O________OP___ hurdat_epa EP031959 20.4000 -138.400 TS 45 0 20.4000 -138.400 TC 45 20.3992 -138.372 2 7 278
1959197N12242 1959 48 EP MM NOT_NAMED 1959-07-21 09:00:00 TS 20.4504 -138.747 main 1685 1643 P________PP___ EP031959 20.4498 -138.750 TS 45 0 20.4498 -138.750 TC 45 20.4525 -138.734 2 7 279
1959197N12242 1959 48 EP MM NOT_NAMED 1959-07-21 12:00:00 TS 20.5000 -139.100 45 hurdat_epa main 1643 1602 O________OO___ hurdat_epa EP031959 20.5000 -139.100 TS 45 0 20.5000 -139.100 TC 45 20.5000 -139.100 2 7 278
1959197N12242 1959 48 EP MM NOT_NAMED 1959-07-21 15:00:00 TS 20.5533 -139.490 main 1602 1560 P________PP___ EP031959 20.5575 -139.492 TS 45 0 20.5575 -139.492 TC 45 20.5366 -139.483 2 8 277
1959197N12242 1959 48 EP MM NOT_NAMED 1959-07-21 18:00:00 TS 20.5927 -139.896 45 hurdat_epa main 1560 1518 O________OP___ hurdat_epa EP031959 20.6000 -139.900 TS 45 0 20.6000 -139.900 TC 45 20.5636 -139.880 2 8 274
1959197N12242 1959 48 EP CP NOT_NAMED 1959-07-21 21:00:00 TS 20.6049 -140.300 main 1518 1477 P________PP___ EP031959 20.6102 -140.303 TS 45 0 20.6102 -140.303 TC 45 20.5837 -140.288 2 8 271
1959197N12242 1959 48 EP CP NOT_NAMED 1959-07-22 00:00:00 TS 20.6000 -140.700 45 hurdat_epa main 1477 O________OO___ hurdat_epa EP031959 20.6000 -140.700 TS 45 0 20.6000 -140.700 TC 45 20.6000 -140.700 2 8 269

IBTrACS Databaseについて

本データベースは、米国NOAAが公開する1842年以降の世界の熱帯低気圧のベストトラックデータアーカイブInternational Best Track Archive for Climate Stewardship (IBTrACS)を、ウェブで閲覧しやすい形式に変換したものです。

最終更新日:2021-10-08